Time;durP1;ratioP1;P1;durP2;ratioP2;P2;SDS_P1;SDS_P2;PMS_P1;PMS_P2;Temp;Humidity;BMP_temperature;BMP_pressure;BME280_temperature;BME280_humidity;BME280_pressure;Samples;Min_cycle;Max_cycle;Signal;HPM_P1;HPM_P2
2022/08/27 00:00:27;;;;;;;;;;;;;;;;;;1052320;28;4094;-50
2022/08/27 00:01:10;;;;;;;;;;;;;;;;;;1048354;28;2263;-52
2022/08/27 00:01:40;;;;;;;;;;;;;;;;;;1048189;28;4146;-51
2022/08/27 00:02:11;;;;;;;;;;;;;;;;;;1048481;28;3127;-49
2022/08/27 00:02:42;;;;;;;;;;;;;;;;;;1050611;28;4062;-51
2022/08/27 00:03:12;;;;;;;;;;;;;;;;;;1053801;28;1543;-50
2022/08/27 00:03:43;;;;;;;;;;;;;;;;;;1053231;28;3912;-48
2022/08/27 00:04:13;;;;;;;;;;;;;;;;;;1048029;28;2944;-48
2022/08/27 00:04:44;;;;;;;;;;;;;;;;;;1047961;28;3917;-52
2022/08/27 00:05:15;;;;;;;;;;;;;;;;;;1045713;28;2845;-50
2022/08/27 00:05:45;;;;;;;;;;;;;;;;;;1043981;28;4086;-51
2022/08/27 00:06:17;;;;;;;;;;;;;;;;;;1049082;28;3730;-51
2022/08/27 00:06:47;;;;;;;;;;;;;;;;;;1048487;28;4030;-51
2022/08/27 00:07:17;;;;;;;;;;;;;;;;;;1053363;28;3497;-50
2022/08/27 00:07:48;;;;;;;;;;;;;;;;;;1049831;28;3862;-47
2022/08/27 00:08:18;;;;;;;;;;;;;;;;;;1053127;28;2791;-48
2022/08/27 00:08:49;;;;;;;;;;;;;;;;;;1052241;28;3890;-52
2022/08/27 00:09:19;;;;;;;;;;;;;;;;;;1054376;28;1589;-50
2022/08/27 00:09:49;;;;;;;;;;;;;;;;;;1050880;28;3958;-50
2022/08/27 00:10:22;;;;;;;;;;;;;;;;;;1054135;28;3804;-51
2022/08/27 00:10:52;;;;;;;;;;;;;;;;;;1047122;28;3906;-52
2022/08/27 00:11:26;;;;;;;;;;;;;;;;;;1049101;28;2795;-49
2022/08/27 00:12:00;;;;;;;;;;;;;;;;;;1044542;28;3834;-50
2022/08/27 00:12:30;;;;;;;;;;;;;;;;;;1045727;28;3979;-48
2022/08/27 00:13:00;;;;;;;;;;;;;;;;;;1047212;28;3701;-51
2022/08/27 00:13:30;;;;;;;;;;;;;;;;;;1043598;28;4102;-50
2022/08/27 00:14:01;;;;;;;;;;;;;;;;;;1047212;28;3037;-53
2022/08/27 00:14:31;;;;;;;;;;;;;;;;;;1047449;28;3907;-51
2022/08/27 00:15:04;;;;;;;;;;;;;;;;;;1047911;28;3610;-50
2022/08/27 00:15:34;;;;;;;;;;;;;;;;;;1051812;28;3898;-49
2022/08/27 00:16:06;;;;;;;;;;;;;;;;;;1050843;28;3918;-51
2022/08/27 00:16:36;;;;;;;;;;;;;;;;;;1052473;28;4052;-53
2022/08/27 00:17:07;;;;;;;;;;;;;;;;;;1053167;28;3811;-50
2022/08/27 00:17:37;;;;;;;;;;;;;;;;;;1052159;28;4062;-50
2022/08/27 00:18:08;;;;;;;;;;;;;;;;;;1048946;28;3703;-51
2022/08/27 00:18:38;;;;;;;;;;;;;;;;;;1048674;28;4082;-49
2022/08/27 00:19:09;;;;;;;;;;;;;;;;;;1044916;28;3956;-54
2022/08/27 00:19:39;;;;;;;;;;;;;;;;;;1043973;28;4001;-50
2022/08/27 00:20:10;;;;;;;;;;;;;;;;;;1044539;28;3734;-49
2022/08/27 00:20:42;;;;;;;;;;;;;;;;;;1044295;28;4045;-51
2022/08/27 00:21:12;;;;;;;;;;;;;;;;;;1047801;28;3924;-51
2022/08/27 00:21:43;;;;;;;;;;;;;;;;;;1048148;28;4261;-51
2022/08/27 00:22:13;;;;;;;;;;;;;;;;;;1052592;28;3561;-52
2022/08/27 00:22:43;;;;;;;;;;;;;;;;;;1052795;28;4280;-50
2022/08/27 00:23:14;;;;;;;;;;;;;;;;;;1051945;28;2781;-50
2022/08/27 00:23:44;;;;;;;;;;;;;;;;;;1052682;28;3931;-50
2022/08/27 00:24:14;;;;;;;;;;;;;;;;;;1053324;28;3666;-50
2022/08/27 00:24:44;;;;;;;;;;;;;;;;;;1051871;28;3889;-51
2022/08/27 00:25:15;;;;;;;;;;;;;;;;;;1052581;28;2614;-50
2022/08/27 00:25:45;;;;;;;;;;;;;;;;;;1051879;28;3920;-48
2022/08/27 00:26:15;;;;;;;;;;;;;;;;;;1052231;28;3733;-49
2022/08/27 00:26:46;;;;;;;;;;;;;;;;;;1053745;28;3974;-50
2022/08/27 00:27:16;;;;;;;;;;;;;;;;;;1052196;28;2806;-52
2022/08/27 00:27:47;;;;;;;;;;;;;;;;;;1047390;28;3866;-48
2022/08/27 00:28:17;;;;;;;;;;;;;;;;;;1049125;28;1968;-48
2022/08/27 00:28:47;;;;;;;;;;;;;;;;;;1048404;28;4182;-47
2022/08/27 00:29:18;;;;;;;;;;;;;;;;;;1047390;28;3037;-50
2022/08/27 00:29:48;;;;;;;;;;;;;;;;;;1051844;28;3828;-47
2022/08/27 00:30:20;;;;;;;;;;;;;;;;;;1053031;28;2733;-49
2022/08/27 00:30:50;;;;;;;;;;;;;;;;;;1052369;28;4004;-49
2022/08/27 00:31:21;;;;;;;;;;;;;;;;;;1052988;28;3661;-47
2022/08/27 00:31:51;;;;;;;;;;;;;;;;;;1050142;28;3975;-51
2022/08/27 00:32:22;;;;;;;;;;;;;;;;;;1049959;28;1949;-50
2022/08/27 00:32:59;;;;;;;;;;;;;;;;;;1049294;28;3836;-51
2022/08/27 00:33:29;;;;;;;;;;;;;;;;;;1045177;28;4151;-52
2022/08/27 00:34:00;;;;;;;;;;;;;;;;;;1044592;28;3753;-49
2022/08/27 00:34:30;;;;;;;;;;;;;;;;;;1044330;28;4125;-50
2022/08/27 00:35:00;;;;;;;;;;;;;;;;;;1044539;28;3766;-49
2022/08/27 00:35:37;;;;;;;;;;;;;;;;;;1049674;28;3910;-51
2022/08/27 00:36:14;;;;;;;;;;;;;;;;;;1046875;28;3603;-50
2022/08/27 00:36:52;;;;;;;;;;;;;;;;;;1046623;28;3794;-51
2022/08/27 00:37:22;;;;;;;;;;;;;;;;;;1048181;28;3961;-51
2022/08/27 00:37:52;;;;;;;;;;;;;;;;;;1048724;28;4081;-47
2022/08/27 00:38:23;;;;;;;;;;;;;;;;;;1048614;28;3976;-51
2022/08/27 00:38:53;;;;;;;;;;;;;;;;;;1048128;28;4051;-51
2022/08/27 00:39:23;;;;;;;;;;;;;;;;;;1049241;28;3101;-49
2022/08/27 00:39:54;;;;;;;;;;;;;;;;;;1048741;28;3862;-49
2022/08/27 00:40:24;;;;;;;;;;;;;;;;;;1049981;28;4019;-53
2022/08/27 00:40:54;;;;;;;;;;;;;;;;;;1049060;28;3819;-47
2022/08/27 00:41:25;;;;;;;;;;;;;;;;;;1049245;28;3687;-49
2022/08/27 00:41:55;;;;;;;;;;;;;;;;;;1048963;28;3972;-47
2022/08/27 00:42:25;;;;;;;;;;;;;;;;;;1050574;28;3640;-48
2022/08/27 00:42:56;;;;;;;;;;;;;;;;;;1046999;28;3993;-49
2022/08/27 00:43:30;;;;;;;;;;;;;;;;;;1049798;28;3889;-49
2022/08/27 00:44:00;;;;;;;;;;;;;;;;;;1048353;28;3608;-52
2022/08/27 00:44:31;;;;;;;;;;;;;;;;;;1050434;28;3968;-50
2022/08/27 00:45:02;;;;;;;;;;;;;;;;;;1048636;28;3180;-47
2022/08/27 00:45:36;;;;;;;;;;;;;;;;;;1048872;28;3880;-49
2022/08/27 00:46:08;;;;;;;;;;;;;;;;;;1049785;28;2924;-46
2022/08/27 00:46:44;;;;;;;;;;;;;;;;;;1048770;28;3872;-53
2022/08/27 00:47:16;;;;;;;;;;;;;;;;;;1046883;28;3742;-49
2022/08/27 00:47:53;;;;;;;;;;;;;;;;;;1044140;28;4126;-49
2022/08/27 00:48:24;;;;;;;;;;;;;;;;;;1046334;28;3243;-50
2022/08/27 00:48:57;;;;;;;;;;;;;;;;;;1048428;28;3828;-48
2022/08/27 00:49:37;;;;;;;;;;;;;;;;;;1049761;28;4314;-49
2022/08/27 00:50:09;;;;;;;;;;;;;;;;;;1049267;28;3825;-47
2022/08/27 00:50:46;;;;;;;;;;;;;;;;;;1049472;28;4065;-50
2022/08/27 00:51:19;;;;;;;;;;;;;;;;;;1050023;28;1739;-48
2022/08/27 00:51:52;;;;;;;;;;;;;;;;;;1048454;28;3855;-52
2022/08/27 00:52:30;;;;;;;;;;;;;;;;;;1049761;28;3619;-49
2022/08/27 00:53:04;;;;;;;;;;;;;;;;;;1048485;28;3818;-49
2022/08/27 00:53:34;;;;;;;;;;;;;;;;;;1047980;28;3782;-48
2022/08/27 00:54:07;;;;;;;;;;;;;;;;;;1049761;28;1635;-49
2022/08/27 00:54:37;;;;;;;;;;;;;;;;;;1048541;28;3812;-50
2022/08/27 00:55:10;;;;;;;;;;;;;;;;;;1049914;28;3973;-47
2022/08/27 00:55:43;;;;;;;;;;;;;;;;;;1048984;28;4057;-50
2022/08/27 00:56:16;;;;;;;;;;;;;;;;;;1048410;28;1925;-49
2022/08/27 00:56:47;;;;;;;;;;;;;;;;;;1048806;28;3878;-48
2022/08/27 00:57:18;;;;;;;;;;;;;;;;;;1047588;28;3686;-48
2022/08/27 00:57:51;;;;;;;;;;;;;;;;;;1049002;28;3834;-52
2022/08/27 00:58:28;;;;;;;;;;;;;;;;;;1049366;28;1746;-49
2022/08/27 00:59:00;;;;;;;;;;;;;;;;;;1047479;28;4106;-50
2022/08/27 00:59:31;;;;;;;;;;;;;;;;;;1049393;28;3890;-50
2022/08/27 01:00:03;;;;;;;;;;;;;;;;;;1049239;28;3876;-51
2022/08/27 01:00:37;;;;;;;;;;;;;;;;;;1046248;28;3897;-51
2022/08/27 01:01:16;;;;;;;;;;;;;;;;;;1049811;28;2904;-51
2022/08/27 01:02:35;;;;;;;;;;;;;;;;;;1049145;28;4080;-50
2022/08/27 01:03:06;;;;;;;;;;;;;;;;;;1049634;28;3832;-51
2022/08/27 01:03:36;;;;;;;;;;;;;;;;;;1048413;28;4097;-49
2022/08/27 01:04:07;;;;;;;;;;;;;;;;;;1045126;28;2804;-51
2022/08/27 01:04:39;;;;;;;;;;;;;;;;;;1046102;28;3893;-51
2022/08/27 01:05:11;;;;;;;;;;;;;;;;;;1044941;28;2334;-47
2022/08/27 01:05:42;;;;;;;;;;;;;;;;;;1048439;28;3957;-49
2022/08/27 01:06:13;;;;;;;;;;;;;;;;;;1049128;28;3453;-51
2022/08/27 01:06:44;;;;;;;;;;;;;;;;;;1049964;28;3902;-51
2022/08/27 01:07:14;;;;;;;;;;;;;;;;;;1047498;28;3752;-50
2022/08/27 01:07:47;;;;;;;;;;;;;;;;;;1047917;28;4032;-50
2022/08/27 01:08:19;;;;;;;;;;;;;;;;;;1049903;28;3537;-50
2022/08/27 01:08:51;;;;;;;;;;;;;;;;;;1047789;28;4071;-52
2022/08/27 01:09:21;;;;;;;;;;;;;;;;;;1050450;28;3874;-50
2022/08/27 01:09:53;;;;;;;;;;;;;;;;;;1048282;28;3970;-51
2022/08/27 01:10:25;;;;;;;;;;;;;;;;;;1049497;28;3239;-50
2022/08/27 01:10:57;;;;;;;;;;;;;;;;;;1048141;28;4146;-48
2022/08/27 01:11:27;;;;;;;;;;;;;;;;;;1049409;28;3877;-50
2022/08/27 01:11:58;;;;;;;;;;;;;;;;;;1047776;28;3102;-47
2022/08/27 01:12:29;;;;;;;;;;;;;;;;;;1047789;28;3975;-49
2022/08/27 01:13:00;;;;;;;;;;;;;;;;;;1047482;28;3639;-51
2022/08/27 01:13:31;;;;;;;;;;;;;;;;;;1048929;28;4007;-51
2022/08/27 01:14:02;;;;;;;;;;;;;;;;;;1050220;28;4009;-50
2022/08/27 01:14:33;;;;;;;;;;;;;;;;;;1049735;28;4205;-49
2022/08/27 01:15:05;;;;;;;;;;;;;;;;;;1049079;28;3722;-54
2022/08/27 01:15:35;;;;;;;;;;;;;;;;;;1049689;28;4035;-49
2022/08/27 01:16:07;;;;;;;;;;;;;;;;;;1049818;28;3113;-50
2022/08/27 01:16:38;;;;;;;;;;;;;;;;;;1049949;28;4017;-46
2022/08/27 01:17:09;;;;;;;;;;;;;;;;;;1049287;28;2711;-49
2022/08/27 01:17:41;;;;;;;;;;;;;;;;;;1049651;28;4090;-48
2022/08/27 01:18:12;;;;;;;;;;;;;;;;;;1050571;28;1888;-49
2022/08/27 01:18:42;;;;;;;;;;;;;;;;;;1050329;28;4069;-50
2022/08/27 01:19:16;;;;;;;;;;;;;;;;;;1049448;28;3159;-49
2022/08/27 01:19:47;;;;;;;;;;;;;;;;;;1049259;28;4068;-51
2022/08/27 01:20:22;;;;;;;;;;;;;;;;;;1050804;28;3411;-50
2022/08/27 01:20:59;;;;;;;;;;;;;;;;;;1048576;28;4111;-50
2022/08/27 01:21:34;;;;;;;;;;;;;;;;;;1050590;28;4432;-50
2022/08/27 01:22:18;;;;;;;;;;;;;;;;;;1049878;28;3621;-51
2022/08/27 01:23:27;;;;;;;;;;;;;;;;;;1048517;28;4069;-51
2022/08/27 01:24:06;;;;;;;;;;;;;;;;;;1036417;28;4041;-49
2022/08/27 01:24:43;;;;;;;;;;;;;;;;;;1037055;28;4061;-51
2022/08/27 01:25:14;;;;;;;;;;;;;;;;;;1046022;28;1791;-48
2022/08/27 01:25:45;;;;;;;;;;;;;;;;;;1045896;28;4070;-48
2022/08/27 01:26:16;;;;;;;;;;;;;;;;;;1046516;28;3615;-50
2022/08/27 01:26:46;;;;;;;;;;;;;;;;;;1044947;28;3877;-49
2022/08/27 01:27:20;;;;;;;;;;;;;;;;;;1047811;28;2998;-50
2022/08/27 01:27:52;;;;;;;;;;;;;;;;;;1049728;28;4072;-52
2022/08/27 01:28:22;;;;;;;;;;;;;;;;;;1050067;28;1672;-49
2022/08/27 01:28:53;;;;;;;;;;;;;;;;;;1049146;28;3912;-48
2022/08/27 01:29:23;;;;;;;;;;;;;;;;;;1049660;28;2975;-48
2022/08/27 01:29:54;;;;;;;;;;;;;;;;;;1048632;28;3905;-54
2022/08/27 01:30:24;;;;;;;;;;;;;;;;;;1049190;28;3510;-48
2022/08/27 01:30:54;;;;;;;;;;;;;;;;;;1047830;28;4008;-48
2022/08/27 01:31:25;;;;;;;;;;;;;;;;;;1049161;28;3196;-52
2022/08/27 01:32:04;;;;;;;;;;;;;;;;;;1048373;28;3814;-53
2022/08/27 01:32:35;;;;;;;;;;;;;;;;;;1049323;28;4096;-54
2022/08/27 01:33:15;;;;;;;;;;;;;;;;;;1049736;28;3075;-51
2022/08/27 01:33:56;;;;;;;;;;;;;;;;;;1049570;28;4035;-51
2022/08/27 01:34:27;;;;;;;;;;;;;;;;;;1049926;28;4079;-50
2022/08/27 01:34:58;;;;;;;;;;;;;;;;;;1049529;28;2363;-50
2022/08/27 01:35:29;;;;;;;;;;;;;;;;;;1049048;28;4050;-48
2022/08/27 01:36:05;;;;;;;;;;;;;;;;;;1047554;28;3998;-49
2022/08/27 01:36:35;;;;;;;;;;;;;;;;;;1049850;28;4063;-48
2022/08/27 01:37:06;;;;;;;;;;;;;;;;;;1048409;28;2536;-47
2022/08/27 01:37:36;;;;;;;;;;;;;;;;;;1047215;28;4069;-48
2022/08/27 01:38:08;;;;;;;;;;;;;;;;;;1050113;28;2965;-48
2022/08/27 01:38:38;;;;;;;;;;;;;;;;;;1048887;28;3903;-50
2022/08/27 01:39:08;;;;;;;;;;;;;;;;;;1048776;28;3751;-49
2022/08/27 01:39:39;;;;;;;;;;;;;;;;;;1049235;28;3835;-49
2022/08/27 01:40:10;;;;;;;;;;;;;;;;;;1049912;28;1995;-49
2022/08/27 01:40:40;;;;;;;;;;;;;;;;;;1049398;28;4056;-50
2022/08/27 01:41:11;;;;;;;;;;;;;;;;;;1048682;28;3054;-52
2022/08/27 01:41:41;;;;;;;;;;;;;;;;;;1049324;28;4298;-46
2022/08/27 01:42:16;;;;;;;;;;;;;;;;;;1049286;28;3480;-54
2022/08/27 01:42:48;;;;;;;;;;;;;;;;;;1049351;28;3798;-51
2022/08/27 01:43:19;;;;;;;;;;;;;;;;;;1047239;28;3704;-47
2022/08/27 01:43:49;;;;;;;;;;;;;;;;;;1049619;28;3867;-48
2022/08/27 01:44:19;;;;;;;;;;;;;;;;;;1050328;28;1632;-51
2022/08/27 01:44:51;;;;;;;;;;;;;;;;;;1048742;28;3997;-47
2022/08/27 01:45:23;;;;;;;;;;;;;;;;;;1047076;28;2931;-51
2022/08/27 01:45:54;;;;;;;;;;;;;;;;;;1049519;28;4153;-52
2022/08/27 01:46:26;;;;;;;;;;;;;;;;;;1048029;28;2714;-48
2022/08/27 01:46:56;;;;;;;;;;;;;;;;;;1047989;28;3852;-47
2022/08/27 01:47:27;;;;;;;;;;;;;;;;;;1048265;28;3836;-50
2022/08/27 01:47:58;;;;;;;;;;;;;;;;;;1045889;28;3740;-51
2022/08/27 01:48:28;;;;;;;;;;;;;;;;;;1048612;28;4119;-49
2022/08/27 01:48:58;;;;;;;;;;;;;;;;;;1048978;28;2099;-46
2022/08/27 01:49:28;;;;;;;;;;;;;;;;;;1049950;28;4050;-48
2022/08/27 01:49:59;;;;;;;;;;;;;;;;;;1048858;28;3435;-49
2022/08/27 01:50:37;;;;;;;;;;;;;;;;;;1050036;28;4214;-49
2022/08/27 01:51:08;;;;;;;;;;;;;;;;;;1048106;28;3706;-50
2022/08/27 01:51:39;;;;;;;;;;;;;;;;;;1048553;28;4009;-49
2022/08/27 01:52:09;;;;;;;;;;;;;;;;;;1048504;28;2910;-53
2022/08/27 01:52:39;;;;;;;;;;;;;;;;;;1048822;28;3930;-48
2022/08/27 01:53:14;;;;;;;;;;;;;;;;;;1049174;28;2834;-51
2022/08/27 01:53:45;;;;;;;;;;;;;;;;;;1049394;28;4066;-52
2022/08/27 01:54:15;;;;;;;;;;;;;;;;;;1050040;28;3015;-50
2022/08/27 01:54:46;;;;;;;;;;;;;;;;;;1049635;28;3936;-50
2022/08/27 01:55:18;;;;;;;;;;;;;;;;;;1047763;28;6124;-51
2022/08/27 01:55:49;;;;;;;;;;;;;;;;;;1048224;28;3924;-45
2022/08/27 01:56:19;;;;;;;;;;;;;;;;;;1049691;28;3842;-48
2022/08/27 01:56:49;;;;;;;;;;;;;;;;;;1047198;28;4930;-49
2022/08/27 01:57:20;;;;;;;;;;;;;;;;;;1050479;28;3949;-49
2022/08/27 01:57:51;;;;;;;;;;;;;;;;;;1048021;28;4203;-50
2022/08/27 01:58:24;;;;;;;;;;;;;;;;;;1050304;28;3409;-49
2022/08/27 01:58:54;;;;;;;;;;;;;;;;;;1049229;28;3877;-50
2022/08/27 01:59:24;;;;;;;;;;;;;;;;;;1049644;28;3468;-46
2022/08/27 01:59:56;;;;;;;;;;;;;;;;;;1049113;28;4679;-49
2022/08/27 02:00:28;;;;;;;;;;;;;;;;;;1047361;28;4072;-48
2022/08/27 02:01:05;;;;;;;;;;;;;;;;;;1047326;28;3728;-49
2022/08/27 02:01:36;;;;;;;;;;;;;;;;;;1042593;28;4081;-52
2022/08/27 02:02:07;;;;;;;;;;;;;;;;;;1045774;28;3313;-47
2022/08/27 02:02:37;;;;;;;;;;;;;;;;;;1049738;28;3884;-50
2022/08/27 02:03:08;;;;;;;;;;;;;;;;;;1048460;28;3713;-46
2022/08/27 02:03:39;;;;;;;;;;;;;;;;;;1049925;28;4037;-49
2022/08/27 02:04:09;;;;;;;;;;;;;;;;;;1049721;28;1513;-51
2022/08/27 02:04:40;;;;;;;;;;;;;;;;;;1050153;28;4092;-50
2022/08/27 02:05:11;;;;;;;;;;;;;;;;;;1048750;28;3129;-48
2022/08/27 02:05:42;;;;;;;;;;;;;;;;;;1049288;28;4032;-46
2022/08/27 02:06:12;;;;;;;;;;;;;;;;;;1049346;28;3492;-47
2022/08/27 02:06:43;;;;;;;;;;;;;;;;;;1050233;28;4041;-51
2022/08/27 02:07:13;;;;;;;;;;;;;;;;;;1049438;28;3696;-51
2022/08/27 02:07:44;;;;;;;;;;;;;;;;;;1048087;28;4055;-49
2022/08/27 02:08:16;;;;;;;;;;;;;;;;;;1049488;28;2204;-45
2022/08/27 02:08:47;;;;;;;;;;;;;;;;;;1049279;28;4065;-49
2022/08/27 02:09:17;;;;;;;;;;;;;;;;;;1048998;28;3108;-54
2022/08/27 02:09:47;;;;;;;;;;;;;;;;;;1049028;28;4114;-49
2022/08/27 02:10:20;;;;;;;;;;;;;;;;;;1049939;28;2532;-48
2022/08/27 02:10:50;;;;;;;;;;;;;;;;;;1048419;28;4734;-49
2022/08/27 02:11:26;;;;;;;;;;;;;;;;;;1049916;28;3829;-51
2022/08/27 02:11:57;;;;;;;;;;;;;;;;;;1047982;28;2914;-47
2022/08/27 02:12:27;;;;;;;;;;;;;;;;;;1049810;28;4272;-48
2022/08/27 02:12:58;;;;;;;;;;;;;;;;;;1048885;28;3689;-52
2022/08/27 02:13:28;;;;;;;;;;;;;;;;;;1048005;28;3900;-47
2022/08/27 02:13:58;;;;;;;;;;;;;;;;;;1049707;28;1717;-50
2022/08/27 02:14:29;;;;;;;;;;;;;;;;;;1049376;28;4074;-52
2022/08/27 02:14:59;;;;;;;;;;;;;;;;;;1047900;28;3601;-47
2022/08/27 02:15:30;;;;;;;;;;;;;;;;;;1049020;28;4346;-51
2022/08/27 02:16:00;;;;;;;;;;;;;;;;;;1047783;28;3019;-48
2022/08/27 02:16:31;;;;;;;;;;;;;;;;;;1048278;28;3900;-50
2022/08/27 02:17:01;;;;;;;;;;;;;;;;;;1049549;28;3145;-52
2022/08/27 02:17:33;;;;;;;;;;;;;;;;;;1047953;28;4153;-48
2022/08/27 02:18:04;;;;;;;;;;;;;;;;;;1049555;28;3658;-48
2022/08/27 02:18:37;;;;;;;;;;;;;;;;;;1048784;28;4029;-49
2022/08/27 02:19:07;;;;;;;;;;;;;;;;;;1048470;28;3184;-50
2022/08/27 02:19:37;;;;;;;;;;;;;;;;;;1048102;28;3951;-50
2022/08/27 02:20:09;;;;;;;;;;;;;;;;;;1049778;28;3813;-49
2022/08/27 02:20:41;;;;;;;;;;;;;;;;;;1050029;28;3819;-51
2022/08/27 02:21:13;;;;;;;;;;;;;;;;;;1049611;28;3392;-52
2022/08/27 02:21:43;;;;;;;;;;;;;;;;;;1049968;28;4039;-49
2022/08/27 02:22:13;;;;;;;;;;;;;;;;;;1048586;28;3747;-52
2022/08/27 02:22:44;;;;;;;;;;;;;;;;;;1050199;28;3856;-49
2022/08/27 02:23:15;;;;;;;;;;;;;;;;;;1049013;28;2045;-48
2022/08/27 02:23:45;;;;;;;;;;;;;;;;;;1049651;28;3914;-50
2022/08/27 02:24:15;;;;;;;;;;;;;;;;;;1048322;28;3830;-48
2022/08/27 02:24:45;;;;;;;;;;;;;;;;;;1047847;28;4021;-54
2022/08/27 02:25:18;;;;;;;;;;;;;;;;;;1044915;28;2309;-49
2022/08/27 02:25:49;;;;;;;;;;;;;;;;;;1044538;28;4089;-50
2022/08/27 02:26:19;;;;;;;;;;;;;;;;;;1049905;28;3260;-47
2022/08/27 02:26:50;;;;;;;;;;;;;;;;;;1048436;28;3785;-48
2022/08/27 02:27:20;;;;;;;;;;;;;;;;;;1049203;28;4591;-49
2022/08/27 02:27:50;;;;;;;;;;;;;;;;;;1048015;28;4046;-46
2022/08/27 02:28:21;;;;;;;;;;;;;;;;;;1050259;28;3612;-49
2022/08/27 02:28:51;;;;;;;;;;;;;;;;;;1047802;28;3932;-50
2022/08/27 02:29:22;;;;;;;;;;;;;;;;;;1050586;28;1320;-50
2022/08/27 02:29:54;;;;;;;;;;;;;;;;;;1046755;28;3878;-47
2022/08/27 02:30:25;;;;;;;;;;;;;;;;;;1048160;28;2263;-52
2022/08/27 02:30:55;;;;;;;;;;;;;;;;;;1046749;28;4030;-47
2022/08/27 02:31:25;;;;;;;;;;;;;;;;;;1050474;28;4037;-48
2022/08/27 02:31:56;;;;;;;;;;;;;;;;;;1048334;28;3957;-50
2022/08/27 02:32:27;;;;;;;;;;;;;;;;;;1049032;28;3997;-46
2022/08/27 02:32:59;;;;;;;;;;;;;;;;;;1048165;28;3012;-47
2022/08/27 02:33:31;;;;;;;;;;;;;;;;;;1048352;28;3815;-52
2022/08/27 02:34:02;;;;;;;;;;;;;;;;;;1048948;28;3746;-48
2022/08/27 02:34:33;;;;;;;;;;;;;;;;;;1049255;28;4072;-48
2022/08/27 02:35:04;;;;;;;;;;;;;;;;;;1049879;28;3099;-48
2022/08/27 02:35:37;;;;;;;;;;;;;;;;;;1047613;28;4050;-48
2022/08/27 02:36:21;;;;;;;;;;;;;;;;;;1050482;28;2996;-49
2022/08/27 02:36:58;;;;;;;;;;;;;;;;;;1051302;28;3876;-49
2022/08/27 02:37:29;;;;;;;;;;;;;;;;;;1054816;28;4162;-48
2022/08/27 02:38:00;;;;;;;;;;;;;;;;;;1051234;28;3764;-51
2022/08/27 02:38:31;;;;;;;;;;;;;;;;;;1052197;28;4049;-50
2022/08/27 02:39:02;;;;;;;;;;;;;;;;;;1053196;28;3523;-50
2022/08/27 02:39:33;;;;;;;;;;;;;;;;;;1054236;28;4054;-52
2022/08/27 02:40:04;;;;;;;;;;;;;;;;;;1051893;28;3833;-49
2022/08/27 02:40:36;;;;;;;;;;;;;;;;;;1053461;28;3903;-51
2022/08/27 02:41:06;;;;;;;;;;;;;;;;;;1053351;28;3759;-51
2022/08/27 02:41:36;;;;;;;;;;;;;;;;;;1053931;28;4011;-53
2022/08/27 02:42:07;;;;;;;;;;;;;;;;;;1051871;28;3479;-50
2022/08/27 02:42:37;;;;;;;;;;;;;;;;;;1050400;28;3812;-51
2022/08/27 02:43:08;;;;;;;;;;;;;;;;;;1048375;28;3018;-52
2022/08/27 02:43:39;;;;;;;;;;;;;;;;;;1047732;28;3864;-51
2022/08/27 02:44:10;;;;;;;;;;;;;;;;;;1048316;28;3901;-50
2022/08/27 02:44:40;;;;;;;;;;;;;;;;;;1053482;28;4190;-50
2022/08/27 02:45:11;;;;;;;;;;;;;;;;;;1049062;28;2813;-51
2022/08/27 02:45:42;;;;;;;;;;;;;;;;;;1048965;28;3792;-51
2022/08/27 02:46:12;;;;;;;;;;;;;;;;;;1046429;28;3091;-46
2022/08/27 02:46:42;;;;;;;;;;;;;;;;;;1049300;28;3864;-48
2022/08/27 02:47:14;;;;;;;;;;;;;;;;;;1052738;28;3732;-48
2022/08/27 02:47:44;;;;;;;;;;;;;;;;;;1053177;28;3883;-47
2022/08/27 02:48:15;;;;;;;;;;;;;;;;;;1053411;28;3678;-48
2022/08/27 02:48:45;;;;;;;;;;;;;;;;;;1048055;28;4124;-51
2022/08/27 02:49:16;;;;;;;;;;;;;;;;;;1048911;28;1789;-49
2022/08/27 02:49:46;;;;;;;;;;;;;;;;;;1047892;28;3914;-48
2022/08/27 02:50:17;;;;;;;;;;;;;;;;;;1048224;28;3217;-48
2022/08/27 02:50:47;;;;;;;;;;;;;;;;;;1051838;28;3919;-50
2022/08/27 02:51:18;;;;;;;;;;;;;;;;;;1053859;28;3312;-49
2022/08/27 02:51:52;;;;;;;;;;;;;;;;;;1053739;28;4043;-48
2022/08/27 02:52:24;;;;;;;;;;;;;;;;;;1053659;28;3455;-48
2022/08/27 02:52:55;;;;;;;;;;;;;;;;;;1053078;28;3837;-49
2022/08/27 02:53:27;;;;;;;;;;;;;;;;;;1053735;28;3168;-48
2022/08/27 02:53:57;;;;;;;;;;;;;;;;;;1051796;28;3850;-50
2022/08/27 02:54:27;;;;;;;;;;;;;;;;;;1053100;28;4133;-50
2022/08/27 02:54:58;;;;;;;;;;;;;;;;;;1052958;28;2948;-51
2022/08/27 02:55:28;;;;;;;;;;;;;;;;;;1051647;28;3977;-49
2022/08/27 02:55:59;;;;;;;;;;;;;;;;;;1050980;28;3740;-50
2022/08/27 02:56:29;;;;;;;;;;;;;;;;;;1054304;28;4071;-52
2022/08/27 02:56:59;;;;;;;;;;;;;;;;;;1051434;28;2931;-48
2022/08/27 02:57:30;;;;;;;;;;;;;;;;;;1054052;28;4106;-52
2022/08/27 02:58:00;;;;;;;;;;;;;;;;;;1054445;28;1698;-47
2022/08/27 02:58:32;;;;;;;;;;;;;;;;;;1054248;28;4142;-48
2022/08/27 02:59:02;;;;;;;;;;;;;;;;;;1052485;28;2183;-48
2022/08/27 02:59:33;;;;;;;;;;;;;;;;;;1053400;28;3832;-54
2022/08/27 03:00:05;;;;;;;;;;;;;;;;;;1054292;28;1285;-47
2022/08/27 03:00:35;;;;;;;;;;;;;;;;;;1048911;28;4064;-51
2022/08/27 03:01:05;;;;;;;;;;;;;;;;;;1047846;28;2837;-49
2022/08/27 03:01:35;;;;;;;;;;;;;;;;;;1049672;28;3951;-55
2022/08/27 03:02:06;;;;;;;;;;;;;;;;;;1047260;28;2992;-48
2022/08/27 03:02:37;;;;;;;;;;;;;;;;;;1053804;28;3909;-49
2022/08/27 03:03:14;;;;;;;;;;;;;;;;;;1048848;28;2766;-51
2022/08/27 03:03:44;;;;;;;;;;;;;;;;;;1049202;28;3875;-53
2022/08/27 03:04:15;;;;;;;;;;;;;;;;;;1046945;28;2907;-48
2022/08/27 03:04:45;;;;;;;;;;;;;;;;;;1049997;28;3859;-49
2022/08/27 03:05:16;;;;;;;;;;;;;;;;;;1054577;28;3113;-49
2022/08/27 03:05:47;;;;;;;;;;;;;;;;;;1052674;28;4397;-52
2022/08/27 03:06:17;;;;;;;;;;;;;;;;;;1053207;28;2763;-51
2022/08/27 03:06:47;;;;;;;;;;;;;;;;;;1046243;28;4018;-48
2022/08/27 03:07:18;;;;;;;;;;;;;;;;;;1049228;28;3034;-50
2022/08/27 03:07:48;;;;;;;;;;;;;;;;;;1046860;28;4711;-51
2022/08/27 03:08:18;;;;;;;;;;;;;;;;;;1048960;28;2811;-47
2022/08/27 03:08:49;;;;;;;;;;;;;;;;;;1047269;28;4061;-49
2022/08/27 03:09:19;;;;;;;;;;;;;;;;;;1049535;28;3678;-47
2022/08/27 03:09:50;;;;;;;;;;;;;;;;;;1047214;28;4264;-50
2022/08/27 03:10:21;;;;;;;;;;;;;;;;;;1045099;28;3824;-50
2022/08/27 03:10:52;;;;;;;;;;;;;;;;;;1034205;28;3921;-50
2022/08/27 03:11:22;;;;;;;;;;;;;;;;;;1045488;28;3755;-49
2022/08/27 03:11:56;;;;;;;;;;;;;;;;;;1039563;28;3771;-51
2022/08/27 03:12:26;;;;;;;;;;;;;;;;;;1048545;28;3879;-52
2022/08/27 03:12:57;;;;;;;;;;;;;;;;;;1053488;28;3793;-48
2022/08/27 03:13:27;;;;;;;;;;;;;;;;;;1053909;28;3941;-52
2022/08/27 03:13:57;;;;;;;;;;;;;;;;;;1051012;28;3736;-50
2022/08/27 03:14:28;;;;;;;;;;;;;;;;;;1054338;28;3879;-50
2022/08/27 03:14:58;;;;;;;;;;;;;;;;;;1052207;28;2718;-51
2022/08/27 03:15:28;;;;;;;;;;;;;;;;;;1053886;28;3972;-50
2022/08/27 03:16:00;;;;;;;;;;;;;;;;;;1051906;28;3706;-50
2022/08/27 03:16:32;;;;;;;;;;;;;;;;;;1052967;28;3975;-50
2022/08/27 03:18:41;;;;;;;;;;;;;;;;;;1052687;28;4050;-48
2022/08/27 03:19:11;;;;;;;;;;;;;;;;;;1053585;28;2972;-48
2022/08/27 03:19:42;;;;;;;;;;;;;;;;;;1044720;28;4041;-49
2022/08/27 03:20:12;;;;;;;;;;;;;;;;;;1044316;28;3021;-50
2022/08/27 03:20:43;;;;;;;;;;;;;;;;;;1044482;28;4063;-50
2022/08/27 03:21:18;;;;;;;;;;;;;;;;;;1045689;28;1885;-50
2022/08/27 03:21:49;;;;;;;;;;;;;;;;;;1052659;28;4060;-49
2022/08/27 03:22:19;;;;;;;;;;;;;;;;;;1052820;28;3800;-51
2022/08/27 03:22:49;;;;;;;;;;;;;;;;;;1050929;28;4048;-50
2022/08/27 03:23:21;;;;;;;;;;;;;;;;;;1048675;28;3667;-48
2022/08/27 03:23:51;;;;;;;;;;;;;;;;;;1041866;28;3846;-48
2022/08/27 03:24:21;;;;;;;;;;;;;;;;;;1044038;28;3027;-48
2022/08/27 03:24:54;;;;;;;;;;;;;;;;;;1041969;28;4047;-51
2022/08/27 03:25:24;;;;;;;;;;;;;;;;;;1047147;28;3759;-48
2022/08/27 03:25:57;;;;;;;;;;;;;;;;;;1050330;28;3967;-51
2022/08/27 03:26:28;;;;;;;;;;;;;;;;;;1053522;28;3856;-49
2022/08/27 03:26:58;;;;;;;;;;;;;;;;;;1051347;28;2476;-52
2022/08/27 03:27:29;;;;;;;;;;;;;;;;;;1052826;28;4164;-49
2022/08/27 03:27:59;;;;;;;;;;;;;;;;;;1052150;28;4045;-51
2022/08/27 03:28:31;;;;;;;;;;;;;;;;;;1053985;28;3890;-49
2022/08/27 03:29:01;;;;;;;;;;;;;;;;;;1053167;28;3214;-50
2022/08/27 03:29:33;;;;;;;;;;;;;;;;;;1053281;28;4988;-51
2022/08/27 03:30:04;;;;;;;;;;;;;;;;;;1051175;28;3956;-52
2022/08/27 03:30:35;;;;;;;;;;;;;;;;;;1053288;28;3886;-49
2022/08/27 03:31:07;;;;;;;;;;;;;;;;;;1051471;28;4359;-51
2022/08/27 03:31:37;;;;;;;;;;;;;;;;;;1053537;28;3804;-52
2022/08/27 03:32:07;;;;;;;;;;;;;;;;;;1051479;28;3829;-49
2022/08/27 03:32:38;;;;;;;;;;;;;;;;;;1052733;28;4439;-50
2022/08/27 03:33:10;;;;;;;;;;;;;;;;;;1050896;28;3846;-51
2022/08/27 03:33:40;;;;;;;;;;;;;;;;;;1052286;28;4607;-53
2022/08/27 03:34:10;;;;;;;;;;;;;;;;;;1050227;28;2900;-51
2022/08/27 03:34:41;;;;;;;;;;;;;;;;;;1053511;28;4047;-47
2022/08/27 03:35:12;;;;;;;;;;;;;;;;;;1051867;28;4062;-48
2022/08/27 03:35:42;;;;;;;;;;;;;;;;;;1051311;28;4043;-50
2022/08/27 03:36:26;;;;;;;;;;;;;;;;;;1052121;28;3061;-50
2022/08/27 03:37:03;;;;;;;;;;;;;;;;;;1052120;28;3649;-48
2022/08/27 03:37:34;;;;;;;;;;;;;;;;;;1053208;28;4197;-50
2022/08/27 03:38:04;;;;;;;;;;;;;;;;;;1053364;28;2983;-52
2022/08/27 03:38:35;;;;;;;;;;;;;;;;;;1052792;28;4031;-49
2022/08/27 03:39:05;;;;;;;;;;;;;;;;;;1055099;28;1540;-47
2022/08/27 03:39:35;;;;;;;;;;;;;;;;;;1048685;28;3813;-48
2022/08/27 03:40:07;;;;;;;;;;;;;;;;;;1049609;28;3681;-52
2022/08/27 03:40:37;;;;;;;;;;;;;;;;;;1049031;28;3896;-51
2022/08/27 03:41:08;;;;;;;;;;;;;;;;;;1040688;28;2973;-47
2022/08/27 03:41:39;;;;;;;;;;;;;;;;;;1045342;28;4034;-48